createdAt,value
2019-04-20T00:00:56.058Z,75.19
2019-04-20T00:01:57.221Z,75.57
2019-04-20T00:02:55.584Z,75.76
2019-04-20T00:03:53.711Z,76.04
2019-04-20T00:04:53.395Z,75.85
2019-04-20T00:05:53.372Z,75.85
2019-04-20T00:06:54.790Z,76.33
2019-04-20T00:07:54.094Z,75.85
2019-04-20T00:08:59.820Z,76.81
2019-04-20T00:10:00.460Z,76.81
2019-04-20T00:11:02.624Z,77.19
2019-04-20T00:12:01.514Z,76.90
2019-04-20T00:14:02.055Z,76.04
2019-04-20T00:14:54.191Z,76.71
2019-04-20T00:15:53.662Z,77.09
2019-04-20T00:16:53.203Z,77.47
2019-04-20T00:17:57.172Z,77.56
2019-04-20T00:18:57.289Z,77.76
2019-04-20T00:19:56.102Z,78.14
2019-04-20T00:21:59.646Z,78.67
2019-04-20T00:22:54.083Z,79.24
2019-04-20T00:23:53.549Z,79.05
2019-04-20T00:24:59.389Z,79.62
2019-04-20T00:26:05.597Z,78.96
2019-04-20T00:28:11.793Z,78.48
2019-04-20T00:29:14.369Z,79.24
2019-04-20T00:30:06.677Z,78.86
2019-04-20T00:31:09.632Z,79.43
2019-04-20T00:32:02.569Z,78.67
2019-04-20T00:33:01.805Z,78.38
2019-04-20T00:34:02.405Z,79.24
2019-04-20T00:34:53.900Z,78.77
2019-04-20T00:35:52.902Z,79.43
2019-04-20T00:36:53.923Z,80.00
2019-04-20T00:37:52.911Z,80.57
2019-04-20T00:38:56.902Z,80.10
2019-04-20T00:39:53.106Z,80.57
2019-04-20T00:40:59.332Z,80.76
2019-04-20T00:41:59.502Z,80.66
2019-04-20T00:42:55.677Z,80.57
2019-04-20T00:43:53.362Z,80.29
2019-04-20T00:45:01.053Z,80.47
2019-04-20T00:46:04.872Z,79.91
2019-04-20T00:47:04.506Z,80.57
2019-04-20T00:47:59.527Z,80.00
2019-04-20T00:48:59.181Z,80.38
2019-04-20T00:50:05.524Z,80.38
2019-04-20T00:51:11.538Z,80.95
2019-04-20T00:52:19.046Z,81.24
2019-04-20T00:53:04.712Z,80.95
2019-04-20T00:53:55.878Z,81.24
2019-04-20T00:54:52.352Z,81.62
2019-04-20T00:55:52.946Z,81.14
2019-04-20T00:57:07.859Z,81.62
2019-04-20T00:57:59.519Z,81.43
2019-04-20T00:59:09.250Z,81.14
2019-04-20T01:00:12.576Z,82.00
2019-04-20T01:01:17.191Z,81.43
2019-04-20T01:02:10.304Z,80.91
2019-04-20T01:03:09.813Z,81.48
2019-04-20T01:04:13.189Z,81.20
2019-04-20T01:05:10.699Z,82.15
2019-04-20T01:06:11.098Z,81.96
2019-04-20T01:07:06.318Z,81.96
2019-04-20T01:07:56.323Z,81.86
2019-04-20T01:08:53.009Z,81.96
2019-04-20T01:09:52.055Z,81.38
2019-04-20T01:10:55.732Z,81.96
2019-04-20T01:11:52.895Z,81.96
2019-04-20T01:12:58.742Z,81.67
2019-04-20T01:13:56.074Z,81.86
2019-04-20T01:16:00.570Z,81.86
2019-04-20T01:17:00.047Z,81.86
2019-04-20T01:17:51.907Z,80.91
2019-04-20T01:18:52.135Z,81.20
2019-04-20T01:19:52.659Z,81.38
2019-04-20T01:20:51.789Z,82.05
2019-04-20T01:21:59.718Z,82.53
2019-04-20T01:23:00.086Z,82.53
2019-04-20T01:23:57.722Z,82.91
2019-04-20T01:24:53.317Z,83.00
2019-04-20T01:25:58.357Z,83.29
2019-04-20T01:26:55.973Z,83.58
2019-04-20T01:28:10.297Z,83.86
2019-04-20T01:29:06.283Z,84.39
2019-04-20T01:30:03.314Z,84.95
2019-04-20T01:31:05.111Z,84.86
2019-04-20T01:32:05.644Z,85.15
2019-04-20T01:33:03.490Z,85.62
2019-04-20T01:34:01.810Z,85.53
2019-04-20T01:35:03.701Z,86.19
2019-04-20T01:36:08.798Z,86.19
2019-04-20T01:37:04.365Z,86.47
2019-04-20T01:38:12.620Z,86.76
2019-04-20T01:39:06.285Z,87.24
2019-04-20T01:39:55.459Z,87.43
2019-04-20T01:40:52.634Z,88.09
2019-04-20T01:41:52.024Z,87.71
2019-04-20T01:42:51.328Z,88.00
2019-04-20T01:43:52.283Z,87.43
2019-04-20T01:44:53.585Z,88.28
2019-04-20T01:45:56.749Z,87.90
2019-04-20T01:47:54.404Z,88.28
2019-04-20T01:48:52.560Z,87.90
2019-04-20T01:49:57.503Z,88.38
2019-04-20T01:50:59.622Z,87.90
2019-04-20T01:52:00.780Z,87.71
2019-04-20T01:53:01.778Z,87.43
2019-04-20T01:54:06.622Z,87.81
2019-04-20T01:55:12.686Z,87.86
2019-04-20T01:56:07.273Z,88.00
2019-04-20T01:57:00.908Z,87.71
2019-04-20T01:58:05.102Z,88.15
2019-04-20T01:59:12.554Z,88.34
2019-04-20T02:01:57.732Z,89.38
2019-04-20T02:02:58.379Z,89.47
2019-04-20T02:04:52.542Z,89.19
2019-04-20T02:05:57.823Z,89.47
2019-04-20T02:06:56.092Z,89.67
2019-04-20T02:07:53.872Z,89.57
2019-04-20T02:08:58.333Z,90.33
2019-04-20T02:09:56.779Z,89.95
2019-04-20T02:10:55.845Z,89.95
2019-04-20T02:11:53.388Z,90.23
2019-04-20T02:12:57.572Z,90.14
2019-04-20T02:13:56.608Z,89.67
2019-04-20T02:14:56.091Z,89.76
2019-04-20T02:17:03.016Z,89.76
2019-04-20T02:18:06.198Z,89.28
2019-04-20T02:19:09.103Z,89.57
2019-04-20T02:20:10.419Z,89.28
2019-04-20T02:21:12.197Z,89.47
2019-04-20T02:22:04.054Z,89.38
2019-04-20T02:23:03.201Z,89.57
2019-04-20T02:24:51.018Z,88.67
2019-04-20T02:26:51.981Z,88.90
2019-04-20T02:27:57.795Z,88.81
2019-04-20T02:29:32.455Z,88.76
2019-04-20T02:31:34.330Z,88.86
2019-04-20T02:32:26.649Z,88.86
2019-04-20T02:34:23.958Z,88.29
2019-04-20T02:35:30.837Z,87.82
2019-04-20T02:36:29.398Z,87.53
2019-04-20T02:37:26.066Z,87.72
2019-04-20T02:39:28.683Z,88.39
2019-04-20T02:40:27.040Z,88.95
2019-04-20T02:41:32.408Z,89.24
2019-04-20T02:42:24.237Z,89.53
2019-04-20T02:43:25.357Z,89.62
2019-04-20T02:45:34.850Z,89.62
2019-04-20T02:46:28.586Z,90.09
2019-04-20T02:47:30.746Z,89.72
2019-04-20T02:48:25.229Z,90.57
2019-04-20T02:49:29.710Z,90.66
2019-04-20T02:50:20.681Z,90.19
2019-04-20T02:51:25.047Z,90.19
2019-04-20T02:52:28.754Z,90.57
2019-04-20T02:53:27.494Z,90.38
2019-04-20T02:55:24.845Z,90.28
2019-04-20T02:56:21.897Z,90.19
2019-04-20T02:57:42.838Z,90.38
2019-04-20T02:59:47.445Z,90.95
2019-04-20T03:02:04.188Z,91.89
2019-04-20T03:03:03.303Z,91.24
2019-04-20T03:05:02.586Z,91.80
2019-04-20T03:07:04.256Z,91.99
2019-04-20T03:08:10.073Z,91.94
2019-04-20T03:09:15.133Z,92.14
2019-04-20T03:10:06.565Z,92.56
2019-04-20T03:11:14.667Z,92.85
2019-04-20T03:12:31.601Z,92.85
2019-04-20T03:13:05.329Z,92.56
2019-04-20T03:14:09.576Z,92.52
2019-04-20T03:15:04.442Z,92.23
2019-04-20T03:16:12.316Z,91.75
2019-04-20T03:17:15.127Z,92.71
2019-04-20T03:18:08.819Z,93.18
2019-04-20T03:19:06.864Z,92.71
2019-04-20T03:20:03.080Z,92.99
2019-04-20T03:21:12.755Z,92.99
2019-04-20T03:22:13.694Z,93.08
2019-04-20T03:23:26.139Z,92.61
2019-04-20T03:24:12.762Z,92.80
2019-04-20T03:25:12.417Z,92.71
2019-04-20T03:26:10.983Z,92.71
2019-04-20T03:27:09.623Z,92.90
2019-04-20T03:28:10.365Z,92.99
2019-04-20T03:29:07.824Z,92.99
2019-04-20T03:30:22.009Z,92.71
2019-04-20T03:31:46.972Z,92.42
2019-04-20T03:32:56.067Z,92.71
2019-04-20T03:33:24.486Z,92.33
2019-04-20T03:35:20.857Z,91.38
2019-04-20T03:36:19.589Z,91.47
2019-04-20T03:37:15.625Z,91.47
2019-04-20T03:38:10.649Z,91.85
2019-04-20T03:39:10.009Z,91.94
2019-04-20T03:40:05.491Z,91.85
2019-04-20T03:41:03.994Z,92.52
2019-04-20T03:41:52.469Z,92.52
2019-04-20T03:42:48.736Z,92.33
2019-04-20T03:43:49.744Z,92.52
2019-04-20T03:44:56.487Z,92.33
2019-04-20T03:45:56.037Z,92.42
2019-04-20T03:46:57.206Z,91.94
2019-04-20T03:48:00.700Z,92.71
2019-04-20T03:49:04.658Z,93.08
2019-04-20T03:50:10.957Z,92.71
2019-04-20T03:51:08.706Z,92.90
2019-04-20T03:52:08.824Z,92.90
2019-04-20T03:53:14.365Z,92.61
2019-04-20T03:54:05.155Z,92.71
2019-04-20T03:55:01.373Z,92.90
2019-04-20T03:56:03.814Z,92.71
2019-04-20T03:57:15.563Z,92.52
2019-04-20T03:58:10.076Z,93.08
2019-04-20T03:59:07.716Z,92.76
2019-04-20T04:00:05.071Z,92.85
2019-04-20T04:01:03.827Z,93.13
2019-04-20T04:02:22.425Z,93.13
2019-04-20T04:03:12.843Z,93.08
2019-04-20T04:04:09.435Z,93.04
2019-04-20T04:05:06.180Z,93.04
2019-04-20T04:06:03.070Z,92.94
2019-04-20T04:06:53.033Z,93.13
2019-04-20T04:09:02.771Z,92.66
2019-04-20T04:11:08.697Z,92.28
2019-04-20T04:11:58.569Z,92.18
2019-04-20T04:12:49.841Z,92.57
2019-04-20T04:13:48.112Z,93.04
2019-04-20T04:14:47.876Z,93.32
2019-04-20T04:15:55.570Z,92.28
2019-04-20T04:16:54.043Z,93.32
2019-04-20T04:17:49.597Z,92.94
2019-04-20T04:18:58.228Z,92.76
2019-04-20T04:19:54.712Z,92.94
2019-04-20T04:22:04.171Z,93.13
2019-04-20T04:23:08.345Z,93.23
2019-04-20T04:25:03.747Z,93.04
2019-04-20T04:26:05.712Z,93.04
2019-04-20T04:27:03.620Z,93.13
2019-04-20T04:28:01.575Z,93.13
2019-04-20T04:29:13.693Z,92.85
2019-04-20T04:30:05.364Z,93.04
2019-04-20T04:31:09.495Z,92.76
2019-04-20T04:32:12.838Z,92.85
2019-04-20T04:33:37.360Z,92.47
2019-04-20T04:34:22.883Z,92.47
2019-04-20T04:36:01.110Z,92.09
2019-04-20T04:37:03.661Z,93.13
2019-04-20T04:38:06.684Z,92.28
2019-04-20T04:39:08.862Z,92.66
2019-04-20T04:40:14.681Z,92.47
2019-04-20T04:41:17.073Z,92.85
2019-04-20T04:42:22.324Z,92.66
2019-04-20T04:43:10.259Z,92.76
2019-04-20T04:44:53.639Z,92.52
2019-04-20T04:45:47.139Z,92.14
2019-04-20T04:46:54.700Z,92.04
2019-04-20T04:47:47.343Z,92.04
2019-04-20T04:48:50.801Z,91.85
2019-04-20T04:49:56.196Z,91.47
2019-04-20T04:50:55.636Z,91.09
2019-04-20T04:51:55.307Z,91.00
2019-04-20T04:52:57.334Z,90.33
2019-04-20T04:53:55.091Z,90.81
2019-04-20T04:54:54.321Z,90.43
2019-04-20T04:55:52.879Z,90.62
2019-04-20T04:56:48.338Z,90.81
2019-04-20T04:57:47.380Z,90.81
2019-04-20T04:58:46.845Z,90.62
2019-04-20T04:59:46.803Z,90.14
2019-04-20T05:00:49.143Z,89.95
2019-04-20T05:01:51.446Z,89.58
2019-04-20T05:02:53.804Z,89.39
2019-04-20T05:04:19.156Z,89.39
2019-04-20T05:05:10.084Z,88.62
2019-04-20T05:06:08.896Z,88.43
2019-04-20T05:06:59.548Z,88.34
2019-04-20T05:07:58.469Z,87.96
2019-04-20T05:08:51.226Z,88.34
2019-04-20T05:09:46.618Z,88.34
2019-04-20T05:10:47.604Z,88.24
2019-04-20T05:11:51.759Z,87.58
2019-04-20T05:12:46.499Z,87.77
2019-04-20T05:13:55.978Z,87.68
2019-04-20T05:16:00.415Z,87.77
2019-04-20T05:17:04.165Z,88.10
2019-04-20T05:18:09.603Z,87.91
2019-04-20T05:19:10.446Z,87.43
2019-04-20T05:20:02.589Z,87.53
2019-04-20T05:21:05.903Z,87.05
2019-04-20T05:23:04.011Z,87.53
2019-04-20T05:24:03.260Z,86.77
2019-04-20T05:25:08.380Z,87.72
2019-04-20T05:26:12.179Z,87.53
2019-04-20T05:27:07.258Z,87.15
2019-04-20T05:28:03.046Z,87.15
2019-04-20T05:28:55.722Z,86.49
2019-04-20T05:29:46.748Z,86.87
2019-04-20T05:30:51.970Z,86.01
2019-04-20T05:31:50.963Z,86.39
2019-04-20T05:32:54.817Z,86.15
2019-04-20T05:34:11.482Z,86.24
2019-04-20T05:35:12.172Z,88.34
2019-04-20T05:36:09.560Z,89.09
2019-04-20T05:40:12.325Z,86.91
2019-04-20T05:42:03.247Z,87.01
2019-04-20T05:43:09.253Z,86.91
2019-04-20T05:44:02.086Z,86.24
2019-04-20T05:45:01.932Z,84.72
2019-04-20T05:46:04.200Z,82.87
2019-04-20T05:47:09.265Z,81.25
2019-04-20T05:48:03.113Z,79.92
2019-04-20T05:49:13.797Z,79.83
2019-04-20T05:50:01.230Z,80.21
2019-04-20T05:51:04.370Z,80.30
2019-04-20T05:52:17.446Z,81.16
2019-04-20T05:53:09.951Z,81.92
2019-04-20T05:54:11.477Z,82.91
2019-04-20T05:55:02.996Z,82.34
2019-04-20T05:56:02.563Z,82.05
2019-04-20T06:00:08.315Z,78.82
2019-04-20T06:01:10.874Z,78.63
2019-04-20T06:02:10.166Z,78.91
2019-04-20T06:03:07.372Z,79.24
2019-04-20T06:04:02.563Z,79.05
2019-04-20T06:05:08.674Z,78.48
2019-04-20T06:07:09.320Z,77.53
2019-04-20T06:08:05.439Z,77.72
2019-04-20T06:09:14.245Z,77.91
2019-04-20T06:10:05.997Z,77.81
2019-04-20T06:11:09.322Z,77.34
2019-04-20T06:13:04.432Z,76.42
2019-04-20T06:13:56.887Z,76.04
2019-04-20T06:15:00.334Z,75.85
2019-04-20T06:16:03.952Z,75.67
2019-04-20T06:17:11.140Z,75.09
2019-04-20T06:18:03.865Z,75.28
2019-04-20T06:19:14.261Z,75.76
2019-04-20T06:20:06.218Z,75.47
2019-04-20T06:21:13.482Z,75.51
2019-04-20T06:22:12.709Z,75.38
2019-04-20T06:23:12.161Z,75.47
2019-04-20T06:24:10.647Z,75.04
2019-04-20T06:26:19.478Z,75.70
2019-04-20T06:27:05.617Z,75.42
2019-04-20T06:28:02.074Z,75.51
2019-04-20T06:29:00.376Z,75.04
2019-04-20T06:30:04.255Z,75.60
2019-04-20T06:30:59.442Z,75.32
2019-04-20T06:32:10.952Z,75.04
2019-04-20T06:33:19.035Z,75.07
2019-04-20T06:34:19.621Z,74.46
2019-04-20T06:35:16.593Z,74.12
2019-04-20T06:38:10.017Z,74.31
2019-04-20T06:39:10.285Z,73.83
2019-04-20T06:40:23.947Z,73.26
2019-04-20T06:41:13.289Z,73.26
2019-04-20T06:42:14.093Z,73.17
2019-04-20T06:43:09.009Z,72.72
2019-04-20T06:44:08.515Z,72.92
2019-04-20T06:45:04.211Z,73.01
2019-04-20T06:47:08.990Z,73.21
2019-04-20T06:48:05.902Z,72.92
2019-04-20T06:49:15.010Z,72.53
2019-04-20T06:50:12.792Z,72.34
2019-04-20T06:50:57.189Z,72.16
2019-04-20T06:52:12.743Z,71.58
2019-04-20T06:53:13.245Z,71.77
2019-04-20T06:53:52.778Z,72.00
2019-04-20T06:55:02.775Z,71.52
2019-04-20T06:56:12.013Z,71.62
2019-04-20T06:57:05.846Z,70.67
2019-04-20T06:58:17.566Z,69.71
2019-04-20T06:59:12.294Z,69.81
2019-04-20T07:00:09.582Z,70.19
2019-04-20T07:01:06.609Z,69.71
2019-04-20T07:02:11.944Z,68.95
2019-04-20T07:03:05.734Z,68.66
2019-04-20T07:04:27.300Z,69.27
2019-04-20T07:06:20.879Z,68.98
2019-04-20T07:07:09.313Z,70.13
2019-04-20T07:08:15.181Z,69.08
2019-04-20T07:11:12.598Z,67.27
2019-04-20T07:13:00.264Z,67.46
2019-04-20T07:13:53.448Z,67.74
2019-04-20T07:14:55.277Z,67.74
2019-04-20T07:15:56.970Z,67.21
2019-04-20T07:17:09.683Z,67.68
2019-04-20T07:18:28.654Z,68.06
2019-04-20T07:19:09.742Z,68.44
2019-04-20T07:20:00.041Z,67.40
2019-04-20T07:21:07.163Z,66.92
2019-04-20T07:22:19.951Z,67.49
2019-04-20T07:23:18.923Z,66.53
2019-04-20T07:25:02.404Z,66.28
2019-04-20T07:26:12.812Z,65.84
2019-04-20T07:27:00.741Z,64.02
2019-04-20T07:28:05.764Z,63.29
2019-04-20T07:29:07.336Z,61.79
2019-04-20T07:30:06.325Z,61.15
2019-04-20T07:37:33.029Z,56.29
2019-04-20T07:39:07.585Z,55.80
2019-04-20T07:40:05.878Z,55.62
2019-04-20T07:40:59.614Z,56.00
2019-04-20T07:42:08.179Z,55.07
2019-04-20T07:44:28.132Z,54.30
2019-04-20T07:45:12.292Z,53.27
2019-04-20T07:46:09.317Z,53.24
2019-04-20T07:47:09.003Z,53.63
2019-04-20T07:49:07.354Z,53.53
2019-04-20T07:50:02.454Z,53.56
2019-04-20T07:50:55.590Z,53.27
2019-04-20T07:51:46.053Z,52.53
2019-04-20T07:52:53.997Z,52.34
2019-04-20T07:54:10.129Z,52.24
2019-04-20T07:55:28.549Z,51.57
2019-04-20T07:56:07.272Z,51.09
2019-04-20T07:57:03.851Z,49.84
2019-04-20T07:57:57.968Z,51.31
2019-04-20T07:58:51.182Z,50.05
2019-04-20T08:01:09.078Z,48.93
2019-04-20T08:03:12.900Z,49.31
2019-04-20T08:04:07.815Z,49.17
2019-04-20T08:05:03.481Z,48.40
2019-04-20T08:05:56.243Z,47.82
2019-04-20T08:06:48.762Z,46.78
2019-04-20T08:07:53.663Z,46.21
2019-04-20T08:08:57.325Z,46.50
2019-04-20T08:10:58.640Z,45.65
2019-04-20T08:15:13.639Z,45.39
2019-04-20T08:17:14.381Z,44.21
2019-04-20T08:18:03.942Z,45.20
2019-04-20T08:21:03.825Z,44.23
2019-04-20T08:23:12.206Z,46.45
2019-04-20T08:24:02.025Z,45.29
2019-04-20T08:25:00.578Z,44.83
2019-04-20T08:25:52.239Z,43.96
2019-04-20T08:26:50.742Z,44.25
2019-04-20T08:28:51.951Z,43.02
2019-04-20T08:29:57.728Z,42.03
2019-04-20T08:31:02.439Z,41.96
2019-04-20T08:32:58.474Z,41.02
2019-04-20T08:34:12.003Z,41.20
2019-04-20T08:35:05.560Z,41.03
2019-04-20T08:36:05.005Z,40.63
2019-04-20T08:37:00.987Z,40.03
2019-04-20T08:38:25.136Z,40.32
2019-04-20T08:40:10.192Z,39.49
2019-04-20T08:40:59.670Z,39.49
2019-04-20T08:42:06.397Z,39.22
2019-04-20T08:43:17.245Z,39.29
2019-04-20T08:44:09.894Z,39.49
2019-04-20T08:45:03.997Z,39.12
2019-04-20T08:46:07.962Z,38.66
2019-04-20T08:47:16.373Z,38.76
2019-04-20T08:48:16.254Z,39.32
2019-04-20T08:49:03.267Z,38.33
2019-04-20T08:50:11.717Z,40.55
2019-04-20T08:51:03.504Z,39.34
2019-04-20T08:52:13.058Z,37.58
2019-04-20T08:54:04.617Z,37.98
2019-04-20T08:55:05.176Z,37.88
2019-04-20T08:55:55.846Z,37.23
2019-04-20T08:56:51.015Z,37.32
2019-04-20T08:57:42.582Z,37.13
2019-04-20T08:58:43.457Z,36.65
2019-04-20T08:59:44.323Z,36.86
2019-04-20T09:00:50.086Z,36.18
2019-04-20T09:01:42.718Z,34.92
2019-04-20T09:02:48.873Z,32.99
2019-04-20T09:03:54.948Z,33.57
2019-04-20T09:04:49.021Z,32.70
2019-04-20T09:05:52.298Z,32.78
2019-04-20T09:06:57.219Z,31.54
2019-04-20T09:08:55.528Z,33.07
2019-04-20T09:10:12.381Z,33.75
2019-04-20T09:11:03.909Z,34.05
2019-04-20T09:12:03.293Z,32.02
2019-04-20T09:13:48.454Z,32.62
2019-04-20T09:14:42.980Z,33.69
2019-04-20T09:15:42.581Z,31.46
2019-04-20T09:16:50.501Z,31.56
2019-04-20T09:17:47.472Z,31.94
2019-04-20T09:18:52.496Z,30.49
2019-04-20T09:19:52.774Z,30.39
2019-04-20T09:20:50.594Z,30.58
2019-04-20T09:21:51.044Z,30.69
2019-04-20T09:22:49.383Z,31.47
2019-04-20T09:24:00.178Z,31.18
2019-04-20T09:27:01.358Z,31.15
2019-04-20T09:27:47.602Z,31.34
2019-04-20T09:28:58.169Z,30.86
2019-04-20T09:30:01.959Z,30.29
2019-04-20T09:30:57.228Z,31.09
2019-04-20T09:31:52.020Z,29.71
2019-04-20T09:32:56.659Z,30.60
2019-04-20T09:33:55.899Z,32.06
2019-04-20T09:34:59.728Z,31.86
2019-04-20T09:35:57.888Z,30.00
2019-04-20T09:37:59.656Z,30.88
2019-04-20T09:38:52.901Z,30.78
2019-04-20T09:40:06.081Z,29.91
2019-04-20T09:40:56.880Z,32.04
2019-04-20T09:41:58.808Z,32.34
2019-04-20T09:42:42.127Z,31.78
2019-04-20T09:43:43.151Z,29.84
2019-04-20T09:44:47.808Z,29.55
2019-04-20T09:45:47.370Z,29.95
2019-04-20T09:46:46.253Z,29.37
2019-04-20T09:47:46.836Z,29.57
2019-04-20T09:48:50.509Z,29.08
2019-04-20T09:49:51.826Z,28.80
2019-04-20T09:51:05.131Z,29.11
2019-04-20T09:51:59.760Z,28.41
2019-04-20T09:53:01.223Z,27.15
2019-04-20T09:53:52.630Z,27.15
2019-04-20T09:54:59.297Z,27.82
2019-04-20T09:55:57.686Z,28.69
2019-04-20T09:57:05.188Z,28.30
2019-04-20T09:57:59.024Z,29.57
2019-04-20T09:59:06.784Z,29.37
2019-04-20T09:59:58.285Z,28.98
2019-04-20T10:01:45.958Z,29.21
2019-04-20T10:02:42.927Z,27.17
2019-04-20T10:03:42.931Z,26.49
2019-04-20T10:04:42.034Z,26.78
2019-04-20T10:05:43.275Z,27.94
2019-04-20T10:06:43.482Z,27.73
2019-04-20T10:07:43.929Z,29.60
2019-04-20T10:08:49.223Z,28.81
2019-04-20T10:09:44.957Z,28.63
2019-04-20T10:10:45.396Z,28.14
2019-04-20T10:11:45.085Z,26.97
2019-04-20T10:12:42.317Z,26.76
2019-04-20T10:14:42.716Z,27.28
2019-04-20T10:15:41.978Z,27.18
2019-04-20T10:16:42.059Z,27.18
2019-04-20T10:17:43.579Z,26.72
2019-04-20T10:18:46.765Z,25.95
2019-04-20T10:19:44.508Z,26.71
2019-04-20T10:20:43.451Z,26.90
2019-04-20T10:21:41.986Z,27.29
2019-04-20T10:22:42.573Z,25.93
2019-04-20T10:23:42.849Z,26.68
2019-04-20T10:24:42.374Z,26.79
2019-04-20T10:26:42.788Z,25.74
2019-04-20T10:27:43.555Z,25.92
2019-04-20T10:28:41.945Z,26.03
2019-04-20T10:29:42.257Z,27.10
2019-04-20T10:30:41.940Z,26.81
2019-04-20T10:31:46.913Z,25.95
2019-04-20T10:32:45.717Z,28.36
2019-04-20T10:33:41.932Z,28.04
2019-04-20T10:34:41.939Z,29.21
2019-04-20T10:35:43.493Z,28.05
2019-04-20T10:37:42.068Z,25.92
2019-04-20T10:38:42.368Z,26.70
2019-04-20T10:39:42.652Z,27.76
2019-04-20T10:40:54.133Z,28.44
2019-04-20T10:41:49.172Z,28.64
2019-04-20T10:42:41.935Z,28.08
2019-04-20T10:43:42.858Z,26.12
2019-04-20T10:44:42.988Z,24.97
2019-04-20T10:45:41.927Z,26.12
2019-04-20T10:46:42.869Z,27.68
2019-04-20T10:47:43.146Z,27.58
2019-04-20T10:48:47.978Z,26.62
2019-04-20T10:49:42.955Z,25.45
2019-04-20T10:50:43.106Z,26.12
2019-04-20T10:51:41.918Z,27.39
2019-04-20T10:52:41.883Z,27.69
2019-04-20T10:53:42.421Z,26.92
2019-04-20T10:54:42.670Z,25.86
2019-04-20T10:56:41.894Z,28.28
2019-04-20T10:57:41.890Z,27.12
2019-04-20T10:58:41.880Z,26.83
2019-04-20T10:59:43.606Z,26.15
2019-04-20T11:00:42.048Z,26.82
2019-04-20T11:01:43.327Z,26.92
2019-04-20T11:02:44.646Z,26.18
2019-04-20T11:03:42.762Z,27.15
2019-04-20T11:04:41.866Z,27.66
2019-04-20T11:05:42.598Z,28.72
2019-04-20T11:06:42.744Z,29.12
2019-04-20T11:07:41.855Z,28.85
2019-04-20T11:08:42.517Z,26.90
2019-04-20T11:09:42.830Z,27.01
2019-04-20T11:10:56.012Z,27.03
2019-04-20T11:11:41.849Z,26.64
2019-04-20T11:13:43.410Z,27.22
2019-04-20T11:15:42.318Z,25.96
2019-04-20T11:16:42.422Z,27.12
2019-04-20T11:17:41.854Z,27.23
2019-04-20T11:18:43.133Z,27.33
2019-04-20T11:19:43.266Z,27.53
2019-04-20T11:20:43.523Z,26.75
2019-04-20T11:22:42.237Z,27.21
2019-04-20T11:24:41.839Z,26.64
2019-04-20T11:25:42.187Z,25.95
2019-04-20T11:26:43.931Z,26.12
2019-04-20T11:27:42.153Z,27.48
2019-04-20T11:28:42.080Z,26.04
2019-04-20T11:29:42.236Z,25.84
2019-04-20T11:30:41.878Z,27.01
2019-04-20T11:31:47.307Z,26.73
2019-04-20T11:32:42.188Z,26.17
2019-04-20T11:33:42.550Z,25.51
2019-04-20T11:34:43.608Z,25.21
2019-04-20T11:35:43.671Z,25.12
2019-04-20T11:36:43.274Z,25.01
2019-04-20T11:38:42.810Z,24.63
2019-04-20T11:39:43.121Z,25.30
2019-04-20T11:40:42.289Z,25.68
2019-04-20T11:41:43.518Z,26.07
2019-04-20T11:42:41.822Z,26.26
2019-04-20T11:43:41.986Z,25.20
2019-04-20T11:44:42.451Z,25.29
2019-04-20T11:45:42.781Z,26.57
2019-04-20T11:46:42.936Z,27.26
2019-04-20T11:47:43.172Z,27.55
2019-04-20T11:48:43.274Z,25.70
2019-04-20T11:49:41.829Z,25.30
2019-04-20T11:50:43.303Z,24.72
2019-04-20T11:51:41.826Z,25.30
2019-04-20T11:52:45.941Z,26.73
2019-04-20T11:53:42.723Z,26.76
2019-04-20T11:54:42.195Z,26.75
2019-04-20T11:55:42.359Z,27.04
2019-04-20T11:56:45.161Z,27.23
2019-04-20T11:57:43.081Z,26.75
2019-04-20T11:58:42.837Z,25.69
2019-04-20T12:00:52.190Z,25.97
2019-04-20T12:01:49.338Z,25.48
2019-04-20T12:02:44.366Z,25.29
2019-04-20T12:03:52.972Z,27.33
2019-04-20T12:04:49.225Z,27.42
2019-04-20T12:05:46.612Z,28.58
2019-04-20T12:06:43.071Z,26.84
2019-04-20T12:07:42.717Z,27.14
2019-04-20T12:08:42.692Z,27.04
2019-04-20T12:09:41.938Z,27.61
2019-04-20T12:10:43.799Z,27.43
2019-04-20T12:12:04.123Z,25.78
2019-04-20T12:16:45.884Z,26.94
2019-04-20T12:17:41.834Z,27.14
2019-04-20T12:18:42.160Z,26.55
2019-04-20T12:19:41.975Z,25.97
2019-04-20T12:20:42.946Z,25.20
2019-04-20T12:22:42.134Z,24.52
2019-04-20T12:23:42.359Z,25.51
2019-04-20T12:24:42.333Z,24.24
2019-04-20T12:25:43.225Z,24.74
2019-04-20T12:26:42.729Z,23.86
2019-04-20T12:27:48.660Z,24.55
2019-04-20T12:28:43.272Z,24.63
2019-04-20T12:29:43.329Z,24.85
2019-04-20T12:30:42.040Z,24.66
2019-04-20T12:31:44.360Z,23.89
2019-04-20T12:33:42.236Z,23.82
2019-04-20T12:34:43.345Z,23.13
2019-04-20T12:35:42.575Z,24.68
2019-04-20T12:36:42.798Z,23.99
2019-04-20T12:37:43.052Z,22.90
2019-04-20T12:38:43.198Z,23.29
2019-04-20T12:39:42.869Z,23.56
2019-04-20T12:40:42.043Z,24.34
2019-04-20T12:41:49.846Z,24.79
2019-04-20T12:43:41.882Z,25.34
2019-04-20T12:44:41.894Z,25.32
2019-04-20T12:46:43.633Z,26.84
2019-04-20T12:47:42.106Z,27.13
2019-04-20T12:48:41.909Z,28.19
2019-04-20T12:49:41.823Z,29.34
2019-04-20T12:50:41.812Z,29.57
2019-04-20T12:52:41.859Z,27.47
2019-04-20T12:53:42.588Z,27.00
2019-04-20T12:54:44.507Z,26.03
2019-04-20T12:55:41.978Z,25.75
2019-04-20T12:56:42.638Z,25.37
2019-04-20T12:57:42.780Z,25.68
2019-04-20T12:58:43.492Z,25.75
2019-04-20T12:59:44.359Z,26.73
2019-04-20T13:00:41.799Z,25.85
2019-04-20T13:01:42.097Z,25.95
2019-04-20T13:02:43.164Z,26.92
2019-04-20T13:03:41.862Z,27.61
2019-04-20T13:04:41.950Z,26.73
2019-04-20T13:05:41.805Z,25.87
2019-04-20T13:06:42.787Z,25.68
2019-04-20T13:07:47.323Z,25.08
2019-04-20T13:08:47.221Z,25.18
2019-04-20T13:09:41.767Z,24.97
2019-04-20T13:10:42.357Z,24.96
2019-04-20T13:12:42.562Z,26.83
2019-04-20T13:13:41.740Z,25.87
2019-04-20T13:14:42.342Z,25.69
2019-04-20T13:15:42.479Z,25.20
2019-04-20T13:16:41.769Z,25.21
2019-04-20T13:17:42.225Z,24.54
2019-04-20T13:18:43.262Z,25.31
2019-04-20T13:19:42.357Z,23.17
2019-04-20T13:20:41.925Z,22.97
2019-04-20T13:22:44.154Z,22.67
2019-04-20T13:23:42.789Z,23.35
2019-04-20T13:24:43.059Z,23.25
2019-04-20T13:26:42.799Z,24.51
2019-04-20T13:27:42.988Z,25.37
2019-04-20T13:29:43.078Z,24.12
2019-04-20T13:30:42.012Z,22.38
2019-04-20T13:31:42.049Z,23.25
2019-04-20T13:32:41.847Z,23.84
2019-04-20T13:33:43.133Z,22.83
2019-04-20T13:34:42.339Z,23.28
2019-04-20T13:35:41.713Z,24.46
2019-04-20T13:38:41.845Z,25.30
2019-04-20T13:39:42.729Z,24.54
2019-04-20T13:40:41.837Z,23.45
2019-04-20T13:41:42.127Z,23.54
2019-04-20T13:42:41.754Z,23.52
2019-04-20T13:43:41.915Z,23.54
2019-04-20T13:44:43.157Z,23.45
2019-04-20T13:46:42.914Z,23.95
2019-04-20T13:47:43.092Z,23.46
2019-04-20T13:48:42.722Z,25.31
2019-04-20T13:49:43.045Z,23.93
2019-04-20T13:50:42.296Z,23.33
2019-04-20T13:51:41.833Z,24.40
2019-04-20T13:52:42.675Z,23.25
2019-04-20T13:53:41.768Z,23.35
2019-04-20T13:54:42.133Z,23.94
2019-04-20T13:55:41.732Z,23.55
2019-04-20T13:56:41.831Z,23.35
2019-04-20T13:57:42.010Z,24.22
2019-04-20T13:58:43.668Z,24.99
2019-04-20T13:59:42.008Z,25.29
2019-04-20T14:00:42.898Z,25.10
2019-04-20T14:01:41.761Z,24.24
2019-04-20T14:02:42.629Z,23.56
2019-04-20T14:03:42.889Z,23.84
2019-04-20T14:04:42.087Z,24.32
2019-04-20T14:05:42.596Z,24.50
2019-04-20T14:06:41.712Z,25.27
2019-04-20T14:07:41.800Z,24.32
2019-04-20T14:08:41.751Z,24.22
2019-04-20T14:09:41.811Z,24.61
2019-04-20T14:10:42.053Z,24.52
2019-04-20T14:11:41.703Z,23.54
2019-04-20T14:12:54.771Z,23.45
2019-04-20T14:13:47.185Z,22.69
2019-04-20T14:14:41.691Z,22.67
2019-04-20T14:18:42.897Z,23.16
2019-04-20T14:19:42.898Z,23.54
2019-04-20T14:20:42.419Z,23.25
2019-04-20T14:21:41.825Z,22.86
2019-04-20T14:22:42.936Z,22.66
2019-04-20T14:23:43.156Z,22.44
2019-04-20T14:24:42.693Z,23.33
2019-04-20T14:25:42.887Z,23.25
2019-04-20T14:26:43.696Z,22.66
2019-04-20T14:27:42.659Z,22.86
2019-04-20T14:29:43.109Z,21.77
2019-04-20T14:30:42.114Z,21.97
2019-04-20T14:31:41.913Z,22.64
2019-04-20T14:32:42.946Z,23.80
2019-04-20T14:33:41.674Z,24.02
2019-04-20T14:34:42.950Z,22.94
2019-04-20T14:35:42.888Z,23.35
2019-04-20T14:36:41.630Z,22.48
2019-04-20T14:37:41.921Z,22.30
2019-04-20T14:38:44.893Z,21.80
2019-04-20T14:39:42.530Z,21.12